createdAt,value
2018-07-25T00:00:21.400Z,8.93
2018-07-25T00:02:50.474Z,8.77
2018-07-25T00:05:19.611Z,8.70
2018-07-25T00:07:48.718Z,8.27
2018-07-25T00:10:18.058Z,8.70
2018-07-25T00:12:47.822Z,8.47
2018-07-25T00:15:17.424Z,7.27
2018-07-25T00:17:46.982Z,8.70
2018-07-25T00:20:16.124Z,7.50
2018-07-25T00:22:45.286Z,9.40
2018-07-25T00:25:14.470Z,8.07
2018-07-25T00:27:43.572Z,8.03
2018-07-25T00:30:12.736Z,9.23
2018-07-25T00:32:43.061Z,9.17
2018-07-25T00:35:12.162Z,8.87
2018-07-25T00:37:41.332Z,8.93
2018-07-25T00:40:11.356Z,9.73
2018-07-25T00:42:40.468Z,8.60
2018-07-25T00:45:10.297Z,8.73
2018-07-25T00:47:39.436Z,9.53
2018-07-25T00:50:08.747Z,8.80
2018-07-25T00:52:37.811Z,9.40
2018-07-25T00:55:06.963Z,8.70
2018-07-25T00:57:36.379Z,8.50
2018-07-25T01:00:05.613Z,9.17
2018-07-25T01:02:34.718Z,9.20
2018-07-25T01:05:03.960Z,9.70
2018-07-25T01:07:33.044Z,9.77
2018-07-25T01:10:02.194Z,8.97
2018-07-25T01:12:31.415Z,10.07
2018-07-25T01:15:00.612Z,8.63
2018-07-25T01:17:30.008Z,9.50
2018-07-25T01:19:59.102Z,9.90
2018-07-25T01:22:28.278Z,9.07
2018-07-25T01:24:57.406Z,8.70
2018-07-25T01:27:26.560Z,8.50
2018-07-25T01:29:55.661Z,9.00
2018-07-25T01:32:24.858Z,8.40
2018-07-25T01:34:54.231Z,8.70
2018-07-25T01:37:23.341Z,8.10
2018-07-25T01:39:52.580Z,7.73
2018-07-25T01:42:22.147Z,7.30
2018-07-25T01:44:51.243Z,8.23
2018-07-25T01:47:20.435Z,8.17
2018-07-25T01:49:49.631Z,7.67
2018-07-25T01:52:18.732Z,8.07
2018-07-25T01:54:47.920Z,8.80
2018-07-25T01:57:17.036Z,8.07
2018-07-25T01:59:46.220Z,8.23
2018-07-25T02:02:15.508Z,8.10
2018-07-25T02:04:47.022Z,7.33
2018-07-25T02:07:16.136Z,7.50
2018-07-25T02:09:45.257Z,7.50
2018-07-25T02:12:14.362Z,8.33
2018-07-25T02:14:44.158Z,7.20
2018-07-25T02:17:13.404Z,6.97
2018-07-25T02:19:42.507Z,7.80
2018-07-25T02:22:11.598Z,7.53
2018-07-25T02:24:40.753Z,7.13
2018-07-25T02:27:09.855Z,7.73
2018-07-25T02:29:39.014Z,7.10
2018-07-25T02:32:08.294Z,7.70
2018-07-25T02:34:37.432Z,7.67
2018-07-25T02:37:06.537Z,7.23
2018-07-25T02:39:35.729Z,7.60
2018-07-25T02:42:04.990Z,7.67
2018-07-25T02:44:34.088Z,7.20
2018-07-25T02:47:03.526Z,7.40
2018-07-25T02:49:32.734Z,7.40
2018-07-25T02:52:02.093Z,7.23
2018-07-25T02:54:31.248Z,7.87
2018-07-25T02:57:00.712Z,7.60
2018-07-25T02:59:29.817Z,8.27
2018-07-25T03:01:58.937Z,6.83
2018-07-25T03:04:28.057Z,7.80
2018-07-25T03:06:57.246Z,8.27
2018-07-25T03:09:26.349Z,7.67
2018-07-25T03:11:55.523Z,8.23
2018-07-25T03:14:24.644Z,7.83
2018-07-25T03:16:53.781Z,7.53
2018-07-25T03:19:22.848Z,8.37
2018-07-25T03:21:52.102Z,7.30
2018-07-25T03:24:21.212Z,7.47
2018-07-25T03:26:50.419Z,8.67
2018-07-25T03:29:19.542Z,7.90
2018-07-25T03:31:48.696Z,8.10
2018-07-25T03:34:17.769Z,7.83
2018-07-25T03:36:47.221Z,7.47
2018-07-25T03:39:17.358Z,8.50
2018-07-25T03:41:46.472Z,9.00
2018-07-25T03:44:15.789Z,8.47
2018-07-25T03:46:45.249Z,8.60
2018-07-25T03:49:14.407Z,9.10
2018-07-25T03:51:43.543Z,7.53
2018-07-25T03:54:12.683Z,7.80
2018-07-25T03:56:41.786Z,8.30
2018-07-25T03:59:10.914Z,7.73
2018-07-25T04:01:40.020Z,8.33
2018-07-25T04:04:10.086Z,9.20
2018-07-25T04:06:39.586Z,11.47
2018-07-25T04:09:09.145Z,10.30
2018-07-25T04:11:38.458Z,9.33
2018-07-25T04:14:07.540Z,8.97
2018-07-25T04:16:36.697Z,7.63
2018-07-25T04:19:06.059Z,9.07
2018-07-25T04:21:36.155Z,8.63
2018-07-25T04:24:05.816Z,8.70
2018-07-25T04:26:35.610Z,9.50
2018-07-25T04:29:05.216Z,8.90
2018-07-25T04:31:34.827Z,7.70
2018-07-25T04:34:03.949Z,8.50
2018-07-25T04:36:33.038Z,8.33
2018-07-25T04:39:03.221Z,8.27
2018-07-25T04:41:32.296Z,8.20
2018-07-25T04:44:01.566Z,8.07
2018-07-25T04:46:30.963Z,7.73
2018-07-25T04:49:00.267Z,8.77
2018-07-25T04:51:29.608Z,8.37
2018-07-25T04:53:58.725Z,9.43
2018-07-25T04:56:27.919Z,9.60
2018-07-25T04:58:57.099Z,9.10
2018-07-25T05:01:26.259Z,8.70
2018-07-25T05:03:55.400Z,8.30
2018-07-25T05:06:24.636Z,8.67
2018-07-25T05:08:53.820Z,8.63
2018-07-25T05:11:22.927Z,9.13
2018-07-25T05:13:52.116Z,7.93
2018-07-25T05:16:21.732Z,8.60
2018-07-25T05:18:51.561Z,8.17
2018-07-25T05:21:20.679Z,9.10
2018-07-25T05:23:50.047Z,10.30
2018-07-25T05:26:19.254Z,11.30
2018-07-25T05:28:48.375Z,9.20
2018-07-25T05:31:17.679Z,9.50
2018-07-25T05:34:05.364Z,8.40
2018-07-25T05:36:34.482Z,8.90
2018-07-25T05:39:04.966Z,11.70
2018-07-25T05:41:34.086Z,8.40
2018-07-25T05:44:03.384Z,10.63
2018-07-25T05:46:32.532Z,11.23
2018-07-25T05:49:02.388Z,10.67
2018-07-25T05:51:31.502Z,8.97
2018-07-25T05:54:00.666Z,8.70
2018-07-25T05:56:30.006Z,8.60
2018-07-25T05:58:59.706Z,8.93
2018-07-25T06:01:29.455Z,8.60
2018-07-25T06:03:58.554Z,9.20
2018-07-25T06:06:27.798Z,8.80
2018-07-25T06:08:56.886Z,9.77
2018-07-25T06:11:26.111Z,9.00
2018-07-25T06:13:55.283Z,9.63
2018-07-25T06:16:24.563Z,8.53
2018-07-25T06:18:53.725Z,9.13
2018-07-25T06:21:23.084Z,9.80
2018-07-25T06:23:52.270Z,9.40
2018-07-25T06:26:21.406Z,9.13
2018-07-25T06:28:50.617Z,27.97
2018-07-25T06:31:19.820Z,9.17
2018-07-25T06:33:56.598Z,9.27
2018-07-25T06:36:29.749Z,8.70
2018-07-25T06:39:06.676Z,9.23
2018-07-25T06:41:45.258Z,8.33
2018-07-25T06:44:26.241Z,9.00
2018-07-25T06:49:58.602Z,8.37
2018-07-25T06:52:45.720Z,8.20
2018-07-25T06:55:19.690Z,10.77
2018-07-25T06:57:57.168Z,6.70
2018-07-25T07:00:32.039Z,7.67
2018-07-25T07:03:06.615Z,7.80
2018-07-25T07:05:43.001Z,8.00
2018-07-25T07:08:24.363Z,7.90
2018-07-25T07:11:01.057Z,7.20
2018-07-25T07:13:35.153Z,7.33
2018-07-25T07:16:09.342Z,6.77
2018-07-25T07:18:46.522Z,6.60
2018-07-25T07:21:19.057Z,6.10
2018-07-25T07:23:51.251Z,6.00
2018-07-25T07:26:22.613Z,6.10
2018-07-25T07:28:55.501Z,6.30
2018-07-25T07:31:29.685Z,6.20
2018-07-25T07:33:59.480Z,6.30
2018-07-25T07:36:33.522Z,6.30
2018-07-25T07:39:09.471Z,6.00
2018-07-25T07:41:41.332Z,5.50
2018-07-25T07:44:16.578Z,4.67
2018-07-25T07:46:58.381Z,4.80
2018-07-25T07:52:11.326Z,5.30
2018-07-25T07:54:41.405Z,6.03
2018-07-25T07:57:14.350Z,5.87
2018-07-25T07:59:48.589Z,4.67
2018-07-25T08:02:19.747Z,5.03
2018-07-25T08:04:50.485Z,4.90
2018-07-25T08:07:24.160Z,5.27
2018-07-25T08:09:58.151Z,4.50
2018-07-25T08:12:31.687Z,3.80
2018-07-25T08:15:03.391Z,4.10
2018-07-25T08:17:34.531Z,4.93
2018-07-25T08:20:04.334Z,4.67
2018-07-25T08:22:34.309Z,5.10
2018-07-25T08:25:10.514Z,5.13
2018-07-25T08:27:43.825Z,4.63
2018-07-25T08:30:15.561Z,6.27
2018-07-25T08:32:45.407Z,5.43
2018-07-25T08:35:14.666Z,4.93
2018-07-25T08:37:43.765Z,5.43
2018-07-25T08:40:12.924Z,5.50
2018-07-25T08:42:42.024Z,4.93
2018-07-25T08:45:11.166Z,5.63
2018-07-25T08:47:41.541Z,5.03
2018-07-25T08:50:11.179Z,4.60
2018-07-25T08:52:41.166Z,5.37
2018-07-25T08:55:10.888Z,4.30
2018-07-25T08:57:42.942Z,4.67
2018-07-25T09:00:18.116Z,3.83
2018-07-25T09:02:50.514Z,3.50
2018-07-25T09:05:19.963Z,4.40
2018-07-25T09:07:49.459Z,3.52
2018-07-25T09:10:18.741Z,4.03
2018-07-25T09:12:48.285Z,3.63
2018-07-25T09:15:17.872Z,3.57
2018-07-25T09:17:47.242Z,3.67
2018-07-25T09:20:16.499Z,3.60
2018-07-25T09:22:47.329Z,4.20
2018-07-25T09:25:17.942Z,3.30
2018-07-25T09:27:47.373Z,4.07
2018-07-25T09:30:16.984Z,3.60
2018-07-25T09:32:54.924Z,4.57
2018-07-25T09:35:31.312Z,4.07
2018-07-25T09:38:06.643Z,4.60
2018-07-25T09:40:39.903Z,4.20
2018-07-25T09:43:12.473Z,3.60
2018-07-25T09:45:47.317Z,3.80
2018-07-25T09:48:19.070Z,3.90
2018-07-25T09:50:49.142Z,4.20
2018-07-25T09:53:20.797Z,3.80
2018-07-25T09:55:49.957Z,3.73
2018-07-25T09:58:20.699Z,3.00
2018-07-25T10:00:51.343Z,3.23
2018-07-25T10:03:21.830Z,2.97
2018-07-25T10:05:52.519Z,2.63
2018-07-25T10:08:22.276Z,2.80
2018-07-25T10:10:51.671Z,2.73
2018-07-25T10:13:20.840Z,3.80
2018-07-25T10:15:50.015Z,3.60
2018-07-25T10:18:19.238Z,2.90
2018-07-25T10:20:48.503Z,3.00
2018-07-25T10:23:23.838Z,2.57
2018-07-25T10:25:57.848Z,2.43
2018-07-25T10:28:32.848Z,2.20
2018-07-25T10:31:04.642Z,2.00
2018-07-25T10:33:35.384Z,2.23
2018-07-25T10:36:08.728Z,3.50
2018-07-25T10:38:41.530Z,2.23
2018-07-25T10:41:15.729Z,3.03
2018-07-25T10:43:50.623Z,2.77
2018-07-25T10:46:24.354Z,3.07
2018-07-25T10:49:01.937Z,3.33
2018-07-25T10:51:32.032Z,3.20
2018-07-25T10:54:09.359Z,3.53
2018-07-25T10:56:44.652Z,2.50
2018-07-25T10:59:17.852Z,3.03
2018-07-25T11:01:57.185Z,2.80
2018-07-25T11:04:37.770Z,2.60
2018-07-25T11:07:09.548Z,2.60
2018-07-25T11:10:00.738Z,2.00
2018-07-25T11:12:34.671Z,2.53
2018-07-25T11:15:08.426Z,2.17
2018-07-25T11:17:40.871Z,2.43
2018-07-25T11:20:13.036Z,2.10
2018-07-25T11:22:50.258Z,2.10
2018-07-25T11:25:24.148Z,2.10
2018-07-25T11:27:58.548Z,2.20
2018-07-25T11:30:27.979Z,2.47
2018-07-25T11:32:57.815Z,2.10
2018-07-25T11:35:27.400Z,2.60
2018-07-25T11:37:58.234Z,6.50
2018-07-25T11:40:31.488Z,16.43
2018-07-25T11:43:08.210Z,5.30
2018-07-25T11:45:39.608Z,2.10
2018-07-25T11:48:12.461Z,2.40
2018-07-25T11:50:44.031Z,5.50
2018-07-25T11:53:18.889Z,6.30
2018-07-25T11:55:49.854Z,4.93
2018-07-25T11:58:23.426Z,4.63
2018-07-25T12:00:57.489Z,4.33
2018-07-25T12:03:28.229Z,3.97
2018-07-25T12:05:58.929Z,3.70
2018-07-25T12:08:35.604Z,3.60
2018-07-25T12:11:09.842Z,4.60
2018-07-25T12:13:46.395Z,4.87
2018-07-25T12:16:19.410Z,4.20
2018-07-25T12:18:52.470Z,3.90
2018-07-25T12:21:24.875Z,4.43
2018-07-25T12:23:55.862Z,4.50
2018-07-25T12:26:26.490Z,2.83
2018-07-25T12:28:59.064Z,2.13
2018-07-25T12:31:31.293Z,4.00
2018-07-25T12:34:05.201Z,4.00
2018-07-25T12:36:39.515Z,3.77
2018-07-25T12:39:10.825Z,3.80
2018-07-25T12:41:42.191Z,4.13
2018-07-25T12:47:00.943Z,3.17
2018-07-25T12:49:34.332Z,2.80
2018-07-25T12:52:06.461Z,2.93
2018-07-25T12:54:42.866Z,2.70
2018-07-25T12:57:22.386Z,2.90
2018-07-25T12:59:57.712Z,3.13
2018-07-25T13:02:32.745Z,3.10
2018-07-25T13:05:08.609Z,3.37
2018-07-25T13:07:47.362Z,3.53
2018-07-25T13:10:19.938Z,2.70
2018-07-25T13:12:52.762Z,2.83
2018-07-25T13:15:24.967Z,2.20
2018-07-25T13:17:56.843Z,3.00
2018-07-25T13:20:29.964Z,3.10
2018-07-25T13:23:00.204Z,3.10
2018-07-25T13:25:29.329Z,2.90
2018-07-25T13:27:59.091Z,2.83
2018-07-25T13:30:28.594Z,2.70
2018-07-25T13:33:00.015Z,2.53
2018-07-25T13:35:31.330Z,3.30
2018-07-25T13:38:05.509Z,2.97
2018-07-25T13:40:35.170Z,2.70
2018-07-25T13:43:07.568Z,3.37
2018-07-25T13:45:39.212Z,3.00
2018-07-25T13:48:09.583Z,2.93
2018-07-25T13:50:38.750Z,3.03
2018-07-25T13:53:08.122Z,2.63
2018-07-25T13:55:37.289Z,2.83
2018-07-25T13:58:06.984Z,2.70
2018-07-25T14:00:36.669Z,2.40
2018-07-25T14:03:06.615Z,2.67
2018-07-25T14:05:36.091Z,3.43
2018-07-25T14:08:05.352Z,2.70
2018-07-25T14:10:34.507Z,2.77
2018-07-25T14:13:03.656Z,2.83
2018-07-25T14:15:33.184Z,2.63
2018-07-25T14:18:02.543Z,2.90
2018-07-25T14:20:31.668Z,2.20
2018-07-25T14:23:00.921Z,2.60
2018-07-25T14:25:30.033Z,2.70
2018-07-25T14:27:59.231Z,2.50
2018-07-25T14:30:28.417Z,2.70
2018-07-25T14:32:57.576Z,2.90
2018-07-25T14:35:26.725Z,3.30
2018-07-25T14:37:56.166Z,2.80
2018-07-25T14:40:25.378Z,2.73
2018-07-25T14:42:54.599Z,2.30
2018-07-25T14:45:23.699Z,2.80
2018-07-25T14:47:52.927Z,3.27
2018-07-25T14:50:22.083Z,2.50
2018-07-25T14:52:51.463Z,2.57
2018-07-25T14:55:21.912Z,2.43
2018-07-25T14:57:52.209Z,2.87
2018-07-25T15:00:21.932Z,2.47
2018-07-25T15:02:52.421Z,2.80
2018-07-25T15:05:21.758Z,2.70
2018-07-25T15:07:51.900Z,2.77
2018-07-25T15:10:21.025Z,3.20
2018-07-25T15:12:55.690Z,2.90
2018-07-25T15:15:25.796Z,2.53
2018-07-25T15:17:56.089Z,2.73
2018-07-25T15:20:26.323Z,2.23
2018-07-25T15:22:56.172Z,2.50
2018-07-25T15:25:26.260Z,3.30
2018-07-25T15:28:00.070Z,2.83
2018-07-25T15:30:31.134Z,2.90
2018-07-25T15:33:00.511Z,2.60
2018-07-25T15:35:37.074Z,2.40
2018-07-25T15:38:06.549Z,2.57
2018-07-25T15:40:40.319Z,4.13
2018-07-25T15:43:10.593Z,3.10
2018-07-25T15:45:40.907Z,3.83
2018-07-25T15:48:11.508Z,3.47
2018-07-25T15:50:43.009Z,3.93
2018-07-25T15:53:12.546Z,4.33
2018-07-25T15:55:41.751Z,3.90
2018-07-25T15:58:11.463Z,3.80
2018-07-25T16:00:40.932Z,3.30
2018-07-25T16:03:10.714Z,3.87
2018-07-25T16:05:40.428Z,3.77
2018-07-25T16:08:10.014Z,4.30
2018-07-25T16:10:39.385Z,3.73
2018-07-25T16:13:08.769Z,3.77
2018-07-25T16:15:37.948Z,3.87
2018-07-25T16:18:07.393Z,3.50
2018-07-25T16:20:36.651Z,4.50
2018-07-25T16:23:05.975Z,3.97
2018-07-25T16:25:35.356Z,4.03
2018-07-25T16:28:04.655Z,4.93
2018-07-25T16:30:33.857Z,4.30
2018-07-25T16:33:03.726Z,4.17
2018-07-25T16:35:33.548Z,3.90
2018-07-25T16:38:03.250Z,4.80
2018-07-25T16:40:32.500Z,4.60
2018-07-25T16:43:01.738Z,4.50
2018-07-25T16:45:31.006Z,4.30
2018-07-25T16:48:00.148Z,4.00
2018-07-25T16:50:29.376Z,4.27
2018-07-25T16:52:58.836Z,3.97
2018-07-25T16:55:29.102Z,3.90
2018-07-25T16:57:58.358Z,4.50
2018-07-25T17:00:27.655Z,4.33
2018-07-25T17:02:57.661Z,4.20
2018-07-25T17:05:27.540Z,4.00
2018-07-25T17:07:58.690Z,3.60
2018-07-25T17:10:28.424Z,4.10
2018-07-25T17:12:58.376Z,4.07
2018-07-25T17:15:27.679Z,4.00
2018-07-25T17:17:57.272Z,3.97
2018-07-25T17:20:26.712Z,4.03
2018-07-25T17:22:56.127Z,3.47
2018-07-25T17:25:25.984Z,3.40
2018-07-25T17:27:55.264Z,3.30
2018-07-25T17:30:24.528Z,3.90
2018-07-25T17:32:54.519Z,3.27
2018-07-25T17:35:25.340Z,3.70
2018-07-25T17:37:58.292Z,4.30
2018-07-25T17:40:28.505Z,3.33
2018-07-25T17:42:57.792Z,4.63
2018-07-25T17:45:26.996Z,3.77
2018-07-25T17:47:56.443Z,3.63
2018-07-25T17:50:25.687Z,4.50
2018-07-25T17:52:54.898Z,4.03
2018-07-25T17:55:24.095Z,3.87
2018-07-25T17:57:53.866Z,4.63
2018-07-25T18:00:23.154Z,4.40
2018-07-25T18:02:52.460Z,4.53
2018-07-25T18:05:22.497Z,3.90
2018-07-25T18:07:52.557Z,4.10
2018-07-25T18:10:22.309Z,5.63
2018-07-25T18:12:56.381Z,4.63
2018-07-25T18:15:25.857Z,4.90
2018-07-25T18:17:55.531Z,4.63
2018-07-25T18:20:25.539Z,4.60
2018-07-25T18:22:55.496Z,4.33
2018-07-25T18:25:25.880Z,4.80
2018-07-25T18:27:56.065Z,4.63
2018-07-25T18:30:25.297Z,4.20
2018-07-25T18:32:57.098Z,5.23
2018-07-25T18:35:28.898Z,5.80
2018-07-25T18:37:58.921Z,5.10
2018-07-25T18:40:28.853Z,5.03
2018-07-25T18:42:59.494Z,4.43
2018-07-25T18:45:30.834Z,4.53
2018-07-25T18:48:01.353Z,4.73
2018-07-25T18:50:31.935Z,4.23
2018-07-25T18:53:04.730Z,4.93
2018-07-25T18:55:34.147Z,4.10
2018-07-25T18:58:04.087Z,4.27
2018-07-25T19:00:34.605Z,4.40
2018-07-25T19:03:07.167Z,4.20
2018-07-25T19:05:40.255Z,3.87
2018-07-25T19:08:12.026Z,4.37
2018-07-25T19:10:42.557Z,4.63
2018-07-25T19:13:17.979Z,4.90
2018-07-25T19:15:48.822Z,4.60
2018-07-25T19:18:19.197Z,4.40
2018-07-25T19:20:49.881Z,4.93
2018-07-25T19:23:21.016Z,4.90
2018-07-25T19:25:51.690Z,4.73
2018-07-25T19:28:39.040Z,4.70
2018-07-25T19:31:11.702Z,5.50
2018-07-25T19:33:42.222Z,5.73
2018-07-25T19:36:12.618Z,5.20
2018-07-25T19:38:43.733Z,5.20
2018-07-25T19:41:15.695Z,5.20
2018-07-25T19:43:46.768Z,5.20
2018-07-25T19:46:19.259Z,4.80
2018-07-25T19:48:50.620Z,4.23
2018-07-25T19:51:23.199Z,6.33
2018-07-25T19:53:54.483Z,5.83
2018-07-25T19:56:29.596Z,6.07
2018-07-25T19:59:00.454Z,5.43
2018-07-25T20:01:30.604Z,6.50
2018-07-25T20:04:00.514Z,6.80
2018-07-25T20:06:29.765Z,5.93
2018-07-25T20:08:59.068Z,5.40
2018-07-25T20:11:29.162Z,6.30
2018-07-25T20:14:04.489Z,6.83
2018-07-25T20:16:34.817Z,6.27
2018-07-25T20:19:04.132Z,6.40
2018-07-25T20:21:33.964Z,7.40
2018-07-25T20:24:03.852Z,6.17
2018-07-25T20:26:33.736Z,6.40
2018-07-25T20:29:03.368Z,6.97
2018-07-25T20:31:34.355Z,7.03
2018-07-25T20:34:03.853Z,6.73
2018-07-25T20:36:33.057Z,8.60
2018-07-25T20:39:02.243Z,8.93
2018-07-25T20:41:32.162Z,8.20
2018-07-25T20:44:04.214Z,8.87
2018-07-25T20:46:33.491Z,8.50
2018-07-25T20:49:03.296Z,8.97
2018-07-25T20:51:33.566Z,7.90
2018-07-25T20:54:03.282Z,8.90
2018-07-25T20:56:33.514Z,7.87
2018-07-25T20:59:03.444Z,6.90
2018-07-25T21:01:33.157Z,6.70
2018-07-25T21:04:03.038Z,6.07
2018-07-25T21:06:33.675Z,6.60
2018-07-25T21:09:03.822Z,7.70
2018-07-25T21:11:33.239Z,6.27
2018-07-25T21:14:02.570Z,6.07
2018-07-25T21:16:32.451Z,7.90
2018-07-25T21:19:01.749Z,6.50
2018-07-25T21:21:31.634Z,6.60
2018-07-25T21:24:01.614Z,5.73
2018-07-25T21:26:31.704Z,6.30
2018-07-25T21:29:01.675Z,6.10
2018-07-25T21:31:31.901Z,6.30
2018-07-25T21:34:02.124Z,6.43
2018-07-25T21:36:32.505Z,6.23
2018-07-25T21:39:02.538Z,6.53
2018-07-25T21:41:38.785Z,5.90
2018-07-25T21:44:22.886Z,6.23
2018-07-25T21:46:54.055Z,6.10
2018-07-25T21:49:23.729Z,6.60
2018-07-25T21:51:52.946Z,6.70
2018-07-25T21:54:22.845Z,6.00
2018-07-25T21:56:52.031Z,6.00
2018-07-25T21:59:22.465Z,6.40
2018-07-25T22:01:52.075Z,5.60
2018-07-25T22:04:21.279Z,6.50
2018-07-25T22:06:50.495Z,12.10
2018-07-25T22:09:19.669Z,5.33
2018-07-25T22:11:48.916Z,5.03
2018-07-25T22:14:18.045Z,5.67
2018-07-25T22:16:47.338Z,5.90
2018-07-25T22:19:16.603Z,5.73
2018-07-25T22:21:45.802Z,5.73
2018-07-25T22:24:14.894Z,5.80
2018-07-25T22:26:44.149Z,6.47
2018-07-25T22:29:13.328Z,5.80
2018-07-25T22:31:43.651Z,5.57
2018-07-25T22:34:13.078Z,5.47
2018-07-25T22:36:42.374Z,5.70
2018-07-25T22:39:12.145Z,6.40
2018-07-25T22:41:41.236Z,5.70
2018-07-25T22:44:10.380Z,6.17
2018-07-25T22:46:39.499Z,6.63
2018-07-25T22:49:08.606Z,6.00
2018-07-25T22:51:38.055Z,5.40
2018-07-25T22:54:07.208Z,5.63
2018-07-25T22:56:36.312Z,5.43
2018-07-25T22:59:05.747Z,5.63
2018-07-25T23:01:34.900Z,5.97
2018-07-25T23:04:04.338Z,5.50
2018-07-25T23:06:33.685Z,6.13
2018-07-25T23:09:02.997Z,5.97
2018-07-25T23:11:32.617Z,5.60
2018-07-25T23:14:02.140Z,6.37
2018-07-25T23:16:31.542Z,5.97
2018-07-25T23:19:00.701Z,6.10
2018-07-25T23:21:29.883Z,5.87
2018-07-25T23:23:59.196Z,6.07
2018-07-25T23:26:28.314Z,6.97
2018-07-25T23:28:57.479Z,6.13
2018-07-25T23:31:26.595Z,6.17
2018-07-25T23:33:55.964Z,6.50
2018-07-25T23:36:25.109Z,6.17
2018-07-25T23:38:54.274Z,6.00
2018-07-25T23:41:23.891Z,6.27
2018-07-25T23:43:53.181Z,6.30
2018-07-25T23:46:22.954Z,7.10
2018-07-25T23:48:52.244Z,6.00
2018-07-25T23:51:21.442Z,6.07
2018-07-25T23:53:50.554Z,6.93
2018-07-25T23:56:20.038Z,5.60
2018-07-25T23:58:49.172Z,7.37
